^^

Nearby METAR Reports

 

EGAC - Belfast Harbour, United Kingdom
Distance from station: W 8mi, 13km
Updated: 01/04/2020 08:50
Light rain, Mostly cloudy
Light rain, Mostly cloudy
 Wind from NW
Wind: NW 10 mph , 17 km/h
Temperature: 6°C
Wind Chill: 3°C
Dew Point: 4°C
Humidity: 87%
Barometer: 1026 hPa
Summary: Light rain
Clouds: Mostly cloudy
Visibility: 6 miles , 9 km
Cloud details: Mostly cloudy 1036 m
Mostly cloudy 1341 m
2020/04/01 07:50 EGAC 010750Z AUTO 31009KT 270V330 9000 -RA BKN034/// BKN044/// 06/04 Q1026
EGAA - Belfast/Aldergro, United Kingdom
Distance from station: W 22mi, 35km
Updated: 01/04/2020 09:20
Few Clouds
Few Clouds
 Wind from W
Wind: W 7 mph , 11 km/h
Temperature: 7°C
Wind Chill: 5°C
Dew Point: 4°C
Humidity: 81%
Barometer: 1026 hPa
Clouds: Few Clouds
Visibility: 6 miles , 10 km
Cloud details: Few Clouds 671 m
2020/04/01 08:20 EGAA 010820Z 28006KT 9999 FEW022 07/04 Q1026
 
EGNS - Isle Of Man/Rona, United Kingdom
Distance from station: SE 57mi, 91km
Updated: 01/04/2020 08:50
Partly cloudy
Partly cloudy
 Wind from WNW
Wind: WNW 9 mph , 15 km/h
Temperature: 7°C
Wind Chill: 4°C
Dew Point: 4°C
Humidity: 81%
Barometer: 1026 hPa
Clouds: Partly cloudy
Visibility: 6 miles , 10 km
Cloud details: Few Clouds 427 m
Partly cloudy 518 m
2020/04/01 07:50 EGNS 010750Z 30008KT 9999 FEW014 SCT017 07/04 Q1026
EGPK - Prestwick(Civ/Na, United Kingdom
Distance from station: NE 74mi, 119km
Updated: 01/04/2020 09:20
Partly cloudy
Partly cloudy
 Wind from W
Wind: W 14 mph , 22 km/h
Temperature: 8°C
Wind Chill: 4°C
Dew Point: 4°C
Humidity: 76%
Barometer: 1024 hPa
Clouds: Partly cloudy
Visibility: 6 miles , 10 km
Cloud details: Few Clouds 457 m
Partly cloudy 823 m
2020/04/01 08:20 EGPK 010820Z 27012KT 9999 FEW015 SCT027 08/04 Q1024
 
EIDW - Dublin Airport, Ireland
Distance from station: SSW 87mi, 141km
Updated: 01/04/2020 09:00
Mostly cloudy
Mostly cloudy
 Wind from WNW
Wind: WNW 10 mph , 17 km/h
Temperature: 6°C
Wind Chill: 3°C
Dew Point: 3°C
Humidity: 81%
Barometer: 1027 hPa
Clouds: Mostly cloudy
Visibility: 6 miles , 10 km
Cloud details: Few Clouds 762 m
Mostly cloudy 1372 m
2020/04/01 08:00 EIDW 010800Z 30009KT 9999 FEW025 BKN045 06/03 Q1027 NOSIG
EGPF - Glasgow Airport, United Kingdom
Distance from station: NNE 98mi, 158km
Updated: 01/04/2020 09:20
Mostly cloudy
Mostly cloudy
 Wind from W
Wind: W 13 mph , 20 km/h
Temperature: 8°C
Wind Chill: 4°C
Dew Point: 3°C
Humidity: 71%
Barometer: 1023 hPa
Clouds: Mostly cloudy
Visibility: 6 miles , 10 km
Cloud details: Mostly cloudy 975 m
2020/04/01 08:20 EGPF 010820Z AUTO 27011KT 230V290 9999 BKN032 08/03 Q1023